Airfield :
LOGIN :

Register | Disclaimer

   EN    FR    IT 

 










Legend :    VFR   Marginal VFR   IFR   Intensive IFR   Very Intensive IFR
Visi :
Ceiling :
>= 8 km
>= 3000ft
5 to 8 km
1000 to 3000 ft
1500m to 5 km
500 to 1000 ft
800 to 1500m
200 to 500 ft
< 800m
< 200 ft
Symbols :   Thunderstorms  Fog  Heavy snow  Heavy precipitations  Wind > 20 kt
SIGMETs :     Misc.  Thunderstorms  Icing  Turbulence  Mountain Waves  Volcanic Ashes






- Airport Elevation : 479 ft
- IATA code : DOL


LFRG - Deauville

CURRENT METAR :
  • 231030Z AUTO 01004KT 340V040 9999 -RA OVC004 02/02 Q0992 TEMPO VRB15G30KT 2000 SN BKN005 BKN015CB

EXPIRED METARs :
  • 231000Z AUTO 06003KT 020V090 9999 BKN004 BKN009 OVC014 02/02 Q0991 TEMPO VRB15G30KT 2000 SN BKN005 BKN015CB
  • 230930Z AUTO 08004KT 040V110 9999 BKN007/// OVC017/// ///TCU 02/02 Q0991 TEMPO VRB15G30KT 2000 SN BKN005 BKN015CB
  • 230900Z AUTO 13005KT 9999 -DZ BKN006 OVC021 02/02 Q0991 TEMPO VRB15G30KT 2000 SN BKN005 BKN015CB
  • 230830Z AUTO 13007KT 9999 BKN006 OVC010 02/02 Q0991 TEMPO VRB15G30KT 2000 SN BKN005 BKN015CB
  • 230800Z AUTO 15008KT 9999 OVC007 03/02 Q0991 TEMPO VRB15G30KT 2000 SN BKN005 BKN015CB

TAF TAF LFRG
Valid from the 23 at 09:00 until the 23 at 18:00 UTC


230800Z 2309/2318 06010KT 9999 BKN020
TEMPO 2309/2313 4000 SNRA BKN005 BKN015CB
PROB30
TEMPO 2309/2313 VRB15G30KT 2000 SN BKN002
BECMG 2310/2312 34015G25KT
BECMG 2315/2318 33010KT
ATIS : +33 2 31 65 65 36



MET'MAP, your aeronautical weather chart ! - Copyright ORBIFLY December 2007 - Disclaimer

ORBIFLY MET'MAP TEAM :

Programming & Development : Alexandra Zaïnal
Concept & original design : Baudouin d'Aumeries
Assistance for programming : Marc-Olivier Méhu
Technical & hardware support : Manuel Goepfert

Contact : metmap@orbifly.com




SOURCES & CREDITS :

   NOAA